Bookmark and Share
Track history (hours):
 

Diane H

More information available from US FCC via Universal Licensing System and Coast Guard Vessel Documentation Center.

Last reported at 2014-Apr-19 06:33 UTC. Time now 2014-Apr-19 07:07 UTC.
Position N 50°50' W 127°40'.

Type: Tow > 200 m length. MMSI: 366673090.

NotesDate/timePositionNaut miles runAvg speedWind from/ knotsBaromVisibWave heightAir tempDewpointWater temp
2014-Apr-19 06:33N 50°50' W 127°40'7 6.2
2014-Apr-19 05:22N 50°54' W 127°50'5 5.8
2014-Apr-19 04:33N 50°58' W 127°47'9 7.1
2014-Apr-19 03:14N 51°07' W 127°49'21 7.2
2014-Apr-19 00:21N 51°28' W 127°51'54 5.8
2014-Apr-18 15:00N 52°18' W 128°24'133 6.5 120 / 151015.2 5.4 0.5 7.2
2014-Apr-17 18:33N 54°09' W 130°25'6 5.8
2014-Apr-17 17:33N 54°14' W 130°30'7 6.6
2014-Apr-17 16:33N 54°20' W 130°35'  
2014-Apr-13 16:04N 51°15' W 127°53'5 9.5
2014-Apr-13 15:32N 51°10' W 127°49'9 9.5
2014-Apr-13 14:33N 51°03' W 127°39'1010.0
2014-Apr-13 13:33N 50°56' W 127°27'1010.3
2014-Apr-13 12:33N 50°51' W 127°14'1210.5
2014-Apr-13 11:25N 50°44' W 126°58'10 9.8
2014-Apr-13 10:26N 50°38' W 126°47'9 9.2
2014-Apr-13 09:24N 50°31' W 126°36'17 9.2
2014-Apr-13 07:33N 50°29' W 126°10'30 9.1
2014-Apr-13 04:13N 50°19' W 125°25'710.8
2014-Apr-13 03:32N 50°12' W 125°22'1312.6
2014-Apr-13 02:30N 49°60' W 125°12'1110.4
2014-Apr-13 01:28N 49°52' W 125°01'9 9.7
2014-Apr-13 00:33N 49°45' W 124°52'10 9.7
2014-Apr-12 23:33N 49°38' W 124°42'10 9.9
2014-Apr-12 22:33N 49°31' W 124°32'10 9.5
2014-Apr-12 21:33N 49°26' W 124°20'10 9.7
2014-Apr-12 20:33N 49°21' W 124°07'9 8.7
2014-Apr-12 19:33N 49°15' W 123°56'8 7.6
2014-Apr-12 18:33N 49°09' W 123°51'0 0.2
2014-Apr-12 17:33N 49°08' W 123°51'0 0.0
2014-Apr-12 16:33N 49°08' W 123°51'0 0.0
2014-Apr-12 15:33N 49°08' W 123°51'0 0.0
2014-Apr-12 14:33N 49°08' W 123°51'0 0.0
2014-Apr-12 13:33N 49°08' W 123°51'0 0.0
2014-Apr-12 12:33N 49°08' W 123°51'0 0.0
2014-Apr-12 11:33N 49°08' W 123°51'0 0.0
2014-Apr-12 10:33N 49°08' W 123°51'0 0.0
2014-Apr-12 09:31N 49°08' W 123°51'0 0.0
2014-Apr-12 08:33N 49°08' W 123°51'0 0.0
2014-Apr-12 07:33N 49°08' W 123°51'0 0.0
2014-Apr-12 06:33N 49°08' W 123°51'0 0.0
2014-Apr-12 05:33N 49°08' W 123°51'0 0.0
2014-Apr-12 04:33N 49°08' W 123°51'0 0.0
2014-Apr-12 03:33N 49°08' W 123°51'0 0.0
2014-Apr-12 02:33N 49°08' W 123°51'0 0.0
2014-Apr-12 01:33N 49°08' W 123°51'0 0.0
2014-Apr-12 00:33N 49°08' W 123°51'0 0.0
2014-Apr-11 23:33N 49°08' W 123°51'0 0.0
2014-Apr-11 22:33N 49°08' W 123°51'0 0.0
2014-Apr-11 21:33N 49°08' W 123°51'0 0.0
2014-Apr-11 20:33N 49°08' W 123°51'0 0.1
2014-Apr-11 19:33N 49°08' W 123°51'1 0.8
2014-Apr-11 18:33N 49°09' W 123°50'1 1.0
2014-Apr-11 17:31N 49°09' W 123°51'2 1.6
2014-Apr-11 16:32N 49°10' W 123°53'7 6.9
2014-Apr-11 15:33N 49°16' W 123°58'8 7.7
2014-Apr-11 14:33N 49°21' W 124°07'7 7.2
2014-Apr-11 13:33N 49°25' W 124°17'7 6.8
2014-Apr-11 12:33N 49°28' W 124°26'7 6.5
2014-Apr-11 11:33N 49°32' W 124°33'7 6.7
2014-Apr-11 10:31N 49°37' W 124°40'7 7.0
2014-Apr-11 09:31N 49°42' W 124°48'23 7.2
2014-Apr-11 06:19N 49°59' W 125°12'7 9.4
2014-Apr-11 05:33N 50°06' W 125°17'8 7.8
2014-Apr-11 04:33N 50°13' W 125°23'44 5.3
2014-Apr-10 20:18N 50°30' W 126°26'4 5.8
2014-Apr-10 19:33N 50°30' W 126°33'7 5.5
2014-Apr-10 18:21N 50°34' W 126°41'7 7.3
2014-Apr-10 17:26N 50°39' W 126°48'9 7.9
2014-Apr-10 16:20N 50°44' W 126°59'6 7.0
2014-Apr-10 15:27N 50°48' W 127°07'6 6.9
2014-Apr-10 14:33N 50°51' W 127°15'7 6.9
2014-Apr-10 13:33N 50°55' W 127°25'6 6.3
2014-Apr-10 12:33N 50°59' W 127°32'6 6.1
2014-Apr-10 11:33N 51°03' W 127°39'6 6.1
2014-Apr-10 10:32N 51°08' W 127°46'24 5.9
2014-Apr-10 06:31N 51°31' W 127°52'64 6.0
2014-Apr-09 20:00N 52°30' W 128°30'   180 / 251022.5 5.4 0.5 9.4

Dump ship's entire track history

sailing weather and tide predictions

Diane H — WUR7250 — position and weather